Time;durP1;ratioP1;P1;durP2;ratioP2;P2;SDS_P1;SDS_P2;PMS_P1;PMS_P2;Temp;Humidity;BMP_temperature;BMP_pressure;BME280_temperature;BME280_humidity;BME280_pressure;Samples;Min_cycle;Max_cycle;Signal;HPM_P1;HPM_P2
2021/01/17 00:00:20;;;;;;;;;;;-3.50;99.90;;;;;;5001707;28;19924;-66
2021/01/17 00:02:46;;;;;;;;;;;-3.60;99.90;;;;;;5001052;28;19918;-62
2021/01/17 00:05:12;;;;;;;;;;;-3.50;99.90;;;;;;4997132;28;19917;-64
2021/01/17 00:07:38;;;;;;;;;;;-3.60;99.90;;;;;;4999202;28;20316;-63
2021/01/17 00:10:08;;;;;;;;;;;-3.50;99.90;;;;;;4994334;28;19918;-62
2021/01/17 00:12:34;;;;;;;;;;;-3.80;99.90;;;;;;5001554;28;19917;-64
2021/01/17 00:14:59;;;;;;;;;;;-3.60;99.90;;;;;;4999220;28;19921;-60
2021/01/17 00:17:26;;;;;;;;;;;-3.30;99.90;;;;;;5003668;28;19925;-65
2021/01/17 00:19:51;;;;;;;;;;;-3.40;99.90;;;;;;5003389;28;20262;-65
2021/01/17 00:22:20;;;;;;;;;;;-3.40;99.90;;;;;;5005116;28;19925;-62
2021/01/17 00:24:46;;;;;;;;;;;-3.50;99.90;;;;;;5003505;28;20580;-65
2021/01/17 00:27:13;;;;;;;;;;;-3.50;99.90;;;;;;5002200;28;19944;-63
2021/01/17 00:29:39;;;;;;;;;;;-3.40;99.90;;;;;;5001967;28;20603;-65
2021/01/17 00:32:08;;;;;;;;;;;-3.50;99.90;;;;;;5005147;28;19913;-61
2021/01/17 00:34:33;;;;;;;;;;;-3.40;99.90;;;;;;5003013;28;19964;-63
2021/01/17 00:36:59;;;;;;;;;;;-3.10;99.90;;;;;;5002695;28;19976;-64
2021/01/17 00:39:24;;;;;;;;;;;-3.10;99.90;;;;;;5001589;28;19918;-65
2021/01/17 00:41:50;;;;;;;;;;;-3.30;99.90;;;;;;5006673;28;19966;-59
2021/01/17 00:44:16;;;;;;;;;;;-3.30;99.90;;;;;;5004278;28;19920;-62
2021/01/17 00:46:41;;;;;;;;;;;-3.10;99.90;;;;;;5005088;28;19927;-64
2021/01/17 00:49:07;;;;;;;;;;;-3.20;99.90;;;;;;5001472;28;19928;-64
2021/01/17 00:51:45;;;;;;;;;;;-3.40;99.90;;;;;;5003154;28;19944;-65
2021/01/17 00:54:11;;;;;;;;;;;-3.50;99.90;;;;;;5001734;28;19929;-62
2021/01/17 00:56:37;;;;;;;;;;;-3.30;99.90;;;;;;5002894;28;20399;-62
2021/01/17 00:59:03;;;;;;;;;;;-3.20;99.90;;;;;;5004989;28;19921;-64
2021/01/17 01:01:34;;;;;;;;;;;-3.30;99.90;;;;;;5003601;28;19953;-63
2021/01/17 01:04:00;;;;;;;;;;;-3.30;99.90;;;;;;5000903;28;19928;-65
2021/01/17 01:06:28;;;;;;;;;;;-3.20;99.90;;;;;;5005937;28;19921;-62
2021/01/17 01:08:53;;;;;;;;;;;-3.10;99.90;;;;;;5003531;28;20273;-65
2021/01/17 01:11:20;;;;;;;;;;;-3.10;99.90;;;;;;5000086;28;19937;-64
2021/01/17 01:13:45;;;;;;;;;;;-3.20;99.90;;;;;;5005703;28;19917;-62
2021/01/17 01:16:11;;;;;;;;;;;-3.30;99.90;;;;;;4999134;28;19971;-63
2021/01/17 01:18:37;;;;;;;;;;;-3.30;99.90;;;;;;5001314;28;19921;-64
2021/01/17 01:21:02;;;;;;;;;;;-3.20;99.90;;;;;;5001141;28;19918;-65
2021/01/17 01:23:28;;;;;;;;;;;-3.40;99.90;;;;;;5001126;28;19924;-61
2021/01/17 01:25:56;;;;;;;;;;;-2.90;99.90;;;;;;5005801;28;19920;-64
2021/01/17 01:28:22;;;;;;;;;;;-3.20;99.90;;;;;;5000341;28;20074;-62
2021/01/17 01:30:47;;;;;;;;;;;-3.20;99.90;;;;;;5003856;28;19945;-62
2021/01/17 01:33:13;;;;;;;;;;;-3.40;99.90;;;;;;5003981;28;19929;-61
2021/01/17 01:35:38;;;;;;;;;;;-3.30;99.90;;;;;;5001761;28;19925;-65
2021/01/17 01:38:03;;;;;;;;;;;-3.30;99.90;;;;;;5005641;28;19913;-58
2021/01/17 01:40:29;;;;;;;;;;;-3.20;99.90;;;;;;5003104;28;20008;-62
2021/01/17 01:42:54;;;;;;;;;;;-3.30;99.90;;;;;;5004205;28;19975;-64
2021/01/17 01:45:20;;;;;;;;;;;-3.10;99.90;;;;;;5000480;28;19918;-58
2021/01/17 01:47:45;;;;;;;;;;;-3.20;99.90;;;;;;4999439;28;19924;-59
2021/01/17 01:50:11;;;;;;;;;;;-3.20;99.90;;;;;;5004676;28;19936;-61
2021/01/17 01:52:37;;;;;;;;;;;-3.10;99.90;;;;;;5003130;28;19941;-59
2021/01/17 01:55:03;;;;;;;;;;;-3.10;99.90;;;;;;5003550;28;20423;-61
2021/01/17 01:57:29;;;;;;;;;;;-3.30;99.90;;;;;;5003121;28;19924;-63
2021/01/17 01:59:55;;;;;;;;;;;-3.10;99.90;;;;;;5000945;28;19964;-61
2021/01/17 02:02:21;;;;;;;;;;;-2.90;99.90;;;;;;5005834;28;19925;-63
2021/01/17 02:04:47;;;;;;;;;;;-3.10;99.90;;;;;;5002892;28;19918;-64
2021/01/17 02:07:12;;;;;;;;;;;-3.20;99.90;;;;;;5002575;28;20440;-65
2021/01/17 02:09:38;;;;;;;;;;;-3.00;99.90;;;;;;5004132;28;20269;-62
2021/01/17 02:12:13;;;;;;;;;;;-3.10;99.90;;;;;;5000587;28;19918;-63
2021/01/17 02:14:48;;;;;;;;;;;-3.30;99.90;;;;;;5002747;28;19917;-61
2021/01/17 02:17:16;;;;;;;;;;;-3.30;99.90;;;;;;5000420;28;19917;-62
2021/01/17 02:20:04;;;;;;;;;;;-3.00;99.90;;;;;;5000044;28;19921;-63
2021/01/17 02:22:31;;;;;;;;;;;-3.40;99.90;;;;;;5002294;28;19944;-63
2021/01/17 02:24:57;;;;;;;;;;;-3.10;99.90;;;;;;4998084;28;19940;-61
2021/01/17 02:27:23;;;;;;;;;;;-3.10;99.90;;;;;;5002379;28;20012;-60
2021/01/17 02:29:49;;;;;;;;;;;-3.00;99.90;;;;;;5002878;28;20023;-61
2021/01/17 02:32:16;;;;;;;;;;;-3.00;99.90;;;;;;5002739;28;19917;-62
2021/01/17 02:34:41;;;;;;;;;;;-3.00;99.90;;;;;;5001233;28;20396;-62
2021/01/17 02:37:11;;;;;;;;;;;-3.10;99.90;;;;;;5001100;28;19955;-61
2021/01/17 02:39:55;;;;;;;;;;;-3.00;99.90;;;;;;5002716;28;20012;-62
2021/01/17 02:42:20;;;;;;;;;;;-3.20;99.90;;;;;;5003987;28;20807;-61
2021/01/17 02:44:46;;;;;;;;;;;-3.20;99.90;;;;;;4998907;28;19922;-60
2021/01/17 02:47:12;;;;;;;;;;;-3.00;99.90;;;;;;5003237;28;20384;-61
2021/01/17 02:49:37;;;;;;;;;;;-3.40;99.90;;;;;;4999824;28;19922;-64
2021/01/17 02:52:05;;;;;;;;;;;-3.10;99.90;;;;;;5001063;28;20027;-62
2021/01/17 02:54:35;;;;;;;;;;;-3.20;99.90;;;;;;5002774;28;19929;-63
2021/01/17 02:57:04;;;;;;;;;;;-3.30;99.90;;;;;;5000554;28;19988;-62
2021/01/17 02:59:53;;;;;;;;;;;-2.80;99.90;;;;;;5002666;28;19920;-64
2021/01/17 03:02:19;;;;;;;;;;;-3.40;99.90;;;;;;5005082;28;20331;-63
2021/01/17 03:04:52;;;;;;;;;;;-3.10;99.90;;;;;;5004258;28;19922;-62
2021/01/17 03:07:18;;;;;;;;;;;-3.50;99.90;;;;;;5001530;28;20004;-62
2021/01/17 03:09:44;;;;;;;;;;;-2.90;99.90;;;;;;5004857;28;19922;-64
2021/01/17 03:12:10;;;;;;;;;;;-3.10;99.90;;;;;;5005881;28;19961;-60
2021/01/17 03:14:36;;;;;;;;;;;-3.20;99.90;;;;;;5004433;28;19960;-63
2021/01/17 03:17:06;;;;;;;;;;;-3.00;99.90;;;;;;5002972;28;20752;-62
2021/01/17 03:19:31;;;;;;;;;;;-3.30;99.90;;;;;;5003339;28;19936;-62
2021/01/17 03:21:57;;;;;;;;;;;-3.10;99.90;;;;;;5004513;28;20620;-61
2021/01/17 03:24:22;;;;;;;;;;;-3.20;99.90;;;;;;5003983;28;19921;-62
2021/01/17 03:26:48;;;;;;;;;;;-3.30;99.90;;;;;;5005916;28;20296;-65
2021/01/17 03:29:13;;;;;;;;;;;-3.10;99.90;;;;;;5001124;28;19956;-64
2021/01/17 03:31:39;;;;;;;;;;;-4.10;99.90;;;;;;5005038;28;19996;-62
2021/01/17 03:34:04;;;;;;;;;;;-3.30;99.90;;;;;;5001389;28;19925;-61
2021/01/17 03:36:30;;;;;;;;;;;-3.70;99.90;;;;;;5003355;28;19913;-61
2021/01/17 03:38:56;;;;;;;;;;;-3.20;99.90;;;;;;5005421;28;20384;-64
2021/01/17 03:41:22;;;;;;;;;;;-3.30;99.90;;;;;;5002167;28;20459;-64
2021/01/17 03:43:48;;;;;;;;;;;-3.00;99.90;;;;;;5001994;28;19914;-65
2021/01/17 03:46:13;;;;;;;;;;;-3.10;99.90;;;;;;5004524;28;19918;-58
2021/01/17 03:48:39;;;;;;;;;;;-2.90;99.90;;;;;;4986299;28;19949;-63
2021/01/17 03:51:04;;;;;;;;;;;-3.40;99.90;;;;;;5005935;28;19913;-62
2021/01/17 03:53:30;;;;;;;;;;;-3.10;99.90;;;;;;5004872;28;19924;-61
2021/01/17 03:55:55;;;;;;;;;;;-3.30;99.90;;;;;;5004986;28;19940;-61
2021/01/17 03:58:21;;;;;;;;;;;-3.10;99.90;;;;;;5002478;28;19914;-60
2021/01/17 04:00:46;;;;;;;;;;;-3.10;99.90;;;;;;5004577;28;19917;-61
2021/01/17 04:03:13;;;;;;;;;;;-3.00;99.90;;;;;;5004567;28;19913;-61
2021/01/17 04:05:39;;;;;;;;;;;-3.00;99.90;;;;;;5001890;28;19960;-62
2021/01/17 04:08:04;;;;;;;;;;;-3.20;99.90;;;;;;5002618;28;19964;-65
2021/01/17 04:10:30;;;;;;;;;;;-3.20;99.90;;;;;;5000744;28;19935;-64
2021/01/17 04:12:55;;;;;;;;;;;-3.00;99.90;;;;;;4999242;28;20600;-62
2021/01/17 04:15:21;;;;;;;;;;;-3.00;99.90;;;;;;5003546;28;20689;-64
2021/01/17 04:17:47;;;;;;;;;;;-3.30;99.90;;;;;;4998982;28;19922;-62
2021/01/17 04:20:12;;;;;;;;;;;-3.10;99.90;;;;;;5000335;28;19925;-63
2021/01/17 04:22:40;;;;;;;;;;;-3.30;99.90;;;;;;5002219;28;19917;-63
2021/01/17 04:25:06;;;;;;;;;;;-3.00;99.90;;;;;;4997939;28;19921;-63
2021/01/17 04:27:32;;;;;;;;;;;-3.30;99.90;;;;;;4997150;28;19914;-65
2021/01/17 04:29:57;;;;;;;;;;;-3.10;99.90;;;;;;4999109;28;19992;-62
2021/01/17 04:32:24;;;;;;;;;;;-3.20;99.90;;;;;;5001476;28;20038;-63
2021/01/17 04:34:49;;;;;;;;;;;-3.40;99.90;;;;;;4997757;28;19917;-66
2021/01/17 04:37:19;;;;;;;;;;;-3.40;99.90;;;;;;5000619;28;20574;-65
2021/01/17 04:39:44;;;;;;;;;;;-3.30;99.90;;;;;;5003060;28;20558;-62
2021/01/17 04:42:13;;;;;;;;;;;-3.30;99.90;;;;;;4995709;28;19917;-61
2021/01/17 04:44:42;;;;;;;;;;;-3.40;99.90;;;;;;4999482;28;21876;-62
2021/01/17 04:47:07;;;;;;;;;;;-3.30;99.90;;;;;;5001147;28;19921;-61
2021/01/17 04:49:37;;;;;;;;;;;-3.50;99.90;;;;;;4998000;28;19917;-63
2021/01/17 04:52:03;;;;;;;;;;;-3.20;99.90;;;;;;5000516;28;19920;-64
2021/01/17 04:54:29;;;;;;;;;;;-3.50;99.90;;;;;;5000835;28;20047;-61
2021/01/17 04:56:59;;;;;;;;;;;-3.50;99.90;;;;;;5000079;28;20020;-63
2021/01/17 04:59:29;;;;;;;;;;;-3.30;99.90;;;;;;4999115;28;19964;-61
2021/01/17 05:02:08;;;;;;;;;;;-3.40;99.90;;;;;;5000724;28;19944;-62
2021/01/17 05:04:36;;;;;;;;;;;-3.50;99.90;;;;;;5004082;28;19924;-64
2021/01/17 05:07:25;;;;;;;;;;;-3.60;99.90;;;;;;5005349;28;20474;-62
2021/01/17 05:09:55;;;;;;;;;;;-3.40;99.90;;;;;;4998017;28;20029;-63
2021/01/17 05:12:24;;;;;;;;;;;-3.50;99.90;;;;;;5002843;28;19978;-62
2021/01/17 05:14:54;;;;;;;;;;;-3.40;99.90;;;;;;5001748;28;20000;-62
2021/01/17 05:17:21;;;;;;;;;;;-3.50;99.90;;;;;;5001409;28;19942;-62
2021/01/17 05:19:47;;;;;;;;;;;-3.30;99.90;;;;;;5005558;28;19917;-62
2021/01/17 05:22:13;;;;;;;;;;;-3.30;99.90;;;;;;5001086;28;19918;-63
2021/01/17 05:24:41;;;;;;;;;;;-3.30;99.90;;;;;;5002480;28;19972;-61
2021/01/17 05:27:07;;;;;;;;;;;-3.30;99.90;;;;;;5003935;28;20534;-64
2021/01/17 05:29:32;;;;;;;;;;;-3.30;99.90;;;;;;5003810;28;20016;-61
2021/01/17 05:31:59;;;;;;;;;;;-3.30;99.90;;;;;;5006578;28;19966;-61
2021/01/17 05:34:25;;;;;;;;;;;-3.30;99.90;;;;;;5001447;28;19997;-65
2021/01/17 05:37:02;;;;;;;;;;;-3.10;99.90;;;;;;5003767;28;20625;-62
2021/01/17 05:39:28;;;;;;;;;;;-3.40;99.90;;;;;;5002668;28;19921;-60
2021/01/17 05:41:53;;;;;;;;;;;-3.20;99.90;;;;;;5002574;28;19929;-63
2021/01/17 05:44:29;;;;;;;;;;;-3.30;99.90;;;;;;5004845;28;19949;-64
2021/01/17 05:47:04;;;;;;;;;;;-3.40;99.90;;;;;;5002413;28;19967;-64
2021/01/17 05:49:29;;;;;;;;;;;-3.50;99.90;;;;;;4997269;28;20270;-61
2021/01/17 05:52:08;;;;;;;;;;;-3.20;99.90;;;;;;5005506;28;19917;-61
2021/01/17 05:54:34;;;;;;;;;;;-3.20;99.90;;;;;;5001394;28;20081;-62
2021/01/17 05:56:59;;;;;;;;;;;-3.10;99.90;;;;;;5003881;28;20791;-65
2021/01/17 05:59:35;;;;;;;;;;;-3.10;99.90;;;;;;5003106;28;19917;-64
2021/01/17 06:02:01;;;;;;;;;;;-3.20;99.90;;;;;;5002298;28;19924;-65
2021/01/17 06:04:27;;;;;;;;;;;-3.20;99.90;;;;;;5005658;28;19922;-61
2021/01/17 06:06:53;;;;;;;;;;;-3.30;99.90;;;;;;5002816;28;20375;-62
2021/01/17 06:09:20;;;;;;;;;;;-3.20;99.90;;;;;;5001311;28;19922;-64
2021/01/17 06:11:58;;;;;;;;;;;-3.00;99.90;;;;;;5002412;28;20319;-59
2021/01/17 06:14:24;;;;;;;;;;;-3.40;99.90;;;;;;5001395;28;20516;-59
2021/01/17 06:16:56;;;;;;;;;;;-3.20;99.90;;;;;;5001322;28;19917;-63
2021/01/17 06:19:29;;;;;;;;;;;-3.00;99.90;;;;;;4998056;28;19920;-62
2021/01/17 06:21:58;;;;;;;;;;;-3.20;99.90;;;;;;5001197;28;19918;-63
2021/01/17 06:24:32;;;;;;;;;;;-3.00;99.90;;;;;;5005404;28;19917;-62
2021/01/17 06:26:58;;;;;;;;;;;-3.10;99.90;;;;;;5000761;28;19952;-63
2021/01/17 06:29:33;;;;;;;;;;;-3.10;99.90;;;;;;5001729;28;19920;-63
2021/01/17 06:32:18;;;;;;;;;;;-3.00;99.90;;;;;;5003122;28;19956;-63
2021/01/17 06:34:45;;;;;;;;;;;-3.40;99.90;;;;;;4996991;28;19921;-66
2021/01/17 06:37:11;;;;;;;;;;;-3.10;99.90;;;;;;5002036;28;19963;-64
2021/01/17 06:39:40;;;;;;;;;;;-3.30;99.90;;;;;;5001778;28;19971;-63
2021/01/17 06:42:08;;;;;;;;;;;-3.00;99.90;;;;;;5002144;28;20537;-64
2021/01/17 06:44:34;;;;;;;;;;;-3.10;99.90;;;;;;5001789;28;19917;-61
2021/01/17 06:47:00;;;;;;;;;;;-3.20;99.90;;;;;;5001308;28;19918;-62
2021/01/17 06:49:26;;;;;;;;;;;-3.20;99.90;;;;;;5003056;28;19917;-62
2021/01/17 06:51:53;;;;;;;;;;;-3.00;99.90;;;;;;5001619;28;19913;-64
2021/01/17 06:54:20;;;;;;;;;;;-3.10;99.90;;;;;;5000136;28;20004;-60
2021/01/17 06:56:50;;;;;;;;;;;-3.20;99.90;;;;;;5003104;28;19917;-62
2021/01/17 06:59:36;;;;;;;;;;;-3.20;99.90;;;;;;4996399;28;19922;-61
2021/01/17 07:02:16;;;;;;;;;;;-3.40;99.90;;;;;;5000478;28;20724;-61
2021/01/17 07:04:42;;;;;;;;;;;-3.40;99.90;;;;;;5004453;28;19925;-63
2021/01/17 07:07:16;;;;;;;;;;;-3.10;99.90;;;;;;5001767;28;19925;-61
2021/01/17 07:09:54;;;;;;;;;;;-3.00;99.90;;;;;;5001234;28;19928;-66
2021/01/17 07:12:19;;;;;;;;;;;-2.60;99.90;;;;;;5001138;28;20559;-63
2021/01/17 07:14:50;;;;;;;;;;;-2.90;99.90;;;;;;4997846;28;19925;-64
2021/01/17 07:17:16;;;;;;;;;;;-3.20;99.90;;;;;;5003597;28;20027;-63
2021/01/17 07:19:44;;;;;;;;;;;-3.20;99.90;;;;;;4997601;28;19944;-64
2021/01/17 07:22:09;;;;;;;;;;;-3.20;99.90;;;;;;5000973;28;19920;-62
2021/01/17 07:24:35;;;;;;;;;;;-3.00;99.90;;;;;;4997004;28;19914;-59
2021/01/17 07:27:09;;;;;;;;;;;-3.00;99.90;;;;;;5000532;28;19921;-60
2021/01/17 07:29:36;;;;;;;;;;;-3.10;99.90;;;;;;5001321;28;20249;-63
2021/01/17 07:32:02;;;;;;;;;;;-3.00;99.90;;;;;;4999619;28;19921;-66
2021/01/17 07:34:30;;;;;;;;;;;-2.90;99.90;;;;;;4999717;28;20460;-61
2021/01/17 07:36:59;;;;;;;;;;;-2.80;99.90;;;;;;5003535;28;20579;-65
2021/01/17 07:39:24;;;;;;;;;;;-2.60;99.90;;;;;;4998118;28;19917;-65
2021/01/17 07:41:50;;;;;;;;;;;-2.90;99.90;;;;;;5003585;28;19923;-63
2021/01/17 07:44:17;;;;;;;;;;;-2.80;99.90;;;;;;5001267;28;19960;-60
2021/01/17 07:46:42;;;;;;;;;;;-2.80;99.90;;;;;;4999203;28;20016;-58
2021/01/17 07:49:10;;;;;;;;;;;-2.60;99.90;;;;;;5003580;28;20052;-63
2021/01/17 07:51:36;;;;;;;;;;;-2.70;99.90;;;;;;4998546;28;19974;-62
2021/01/17 07:54:24;;;;;;;;;;;-2.60;99.90;;;;;;4998212;28;20280;-61
2021/01/17 07:56:51;;;;;;;;;;;-2.70;99.90;;;;;;5000792;28;19917;-63
2021/01/17 07:59:23;;;;;;;;;;;-2.50;99.90;;;;;;4998370;28;20844;-59
2021/01/17 08:01:48;;;;;;;;;;;-2.40;99.90;;;;;;4997735;28;19975;-63
2021/01/17 08:04:16;;;;;;;;;;;-2.50;99.90;;;;;;4999736;28;20817;-64
2021/01/17 08:06:41;;;;;;;;;;;-2.30;99.90;;;;;;5001564;28;19922;-63
2021/01/17 08:09:10;;;;;;;;;;;-2.30;99.90;;;;;;5000281;28;19995;-63
2021/01/17 08:11:40;;;;;;;;;;;-2.10;99.90;;;;;;4996436;28;19918;-66
2021/01/17 08:14:21;;;;;;;;;;;-2.50;99.90;;;;;;5000437;28;19972;-61
2021/01/17 08:17:02;;;;;;;;;;;-2.40;99.90;;;;;;4995836;28;20024;-63
2021/01/17 08:19:46;;;;;;;;;;;-2.30;99.90;;;;;;4995505;28;20004;-64
2021/01/17 08:22:19;;;;;;;;;;;-2.30;99.90;;;;;;5000689;28;19926;-61
2021/01/17 08:24:54;;;;;;;;;;;-2.40;99.90;;;;;;4994322;28;19921;-64
2021/01/17 08:27:32;;;;;;;;;;;-2.20;99.90;;;;;;4996817;28;19918;-62
2021/01/17 08:30:01;;;;;;;;;;;-2.30;99.90;;;;;;5000386;28;19967;-63
2021/01/17 08:32:30;;;;;;;;;;;-2.20;99.90;;;;;;4998552;28;19999;-62
2021/01/17 08:34:56;;;;;;;;;;;-2.10;99.90;;;;;;4997588;28;19926;-63
2021/01/17 08:37:21;;;;;;;;;;;-2.00;99.90;;;;;;5005005;28;19970;-64
2021/01/17 08:39:49;;;;;;;;;;;-1.90;99.90;;;;;;5000587;28;19928;-62
2021/01/17 08:42:31;;;;;;;;;;;-1.70;99.90;;;;;;5000946;28;19918;-62
2021/01/17 08:44:57;;;;;;;;;;;-2.10;99.90;;;;;;5005762;28;19960;-66
2021/01/17 08:47:23;;;;;;;;;;;-2.00;99.90;;;;;;5002872;28;19925;-63
2021/01/17 08:49:49;;;;;;;;;;;-1.70;99.90;;;;;;5006190;28;19951;-62
2021/01/17 08:52:22;;;;;;;;;;;-1.70;99.90;;;;;;4999809;28;19917;-62
2021/01/17 08:54:48;;;;;;;;;;;-2.00;99.90;;;;;;5001383;28;19925;-63
2021/01/17 08:57:48;;;;;;;;;;;-1.60;99.90;;;;;;5005404;28;20044;-67
2021/01/17 09:00:17;;;;;;;;;;;-1.90;99.90;;;;;;4989697;28;19917;-58
2021/01/17 09:02:42;;;;;;;;;;;-1.80;99.90;;;;;;5000428;28;20278;-63
2021/01/17 09:05:18;;;;;;;;;;;-1.50;99.90;;;;;;5005606;28;19913;-63
2021/01/17 09:07:47;;;;;;;;;;;-1.80;99.90;;;;;;4996420;28;19918;-61
2021/01/17 09:10:13;;;;;;;;;;;-1.70;99.90;;;;;;5001170;28;20430;-63
2021/01/17 09:12:39;;;;;;;;;;;-1.40;99.90;;;;;;5015900;28;19921;-60
2021/01/17 09:15:20;;;;;;;;;;;-1.50;99.90;;;;;;5001446;28;20369;-64
2021/01/17 09:18:01;;;;;;;;;;;-1.80;99.90;;;;;;5000038;28;19920;-63
2021/01/17 09:20:28;;;;;;;;;;;-1.30;99.90;;;;;;5000463;28;19965;-63
2021/01/17 09:23:02;;;;;;;;;;;-1.20;99.90;;;;;;5004001;28;20641;-65
2021/01/17 09:25:28;;;;;;;;;;;-1.50;99.90;;;;;;5002324;28;20012;-64
2021/01/17 09:27:56;;;;;;;;;;;-1.30;99.90;;;;;;5002040;28;20061;-65
2021/01/17 09:30:22;;;;;;;;;;;-1.40;99.90;;;;;;4997534;28;19924;-60
2021/01/17 09:32:51;;;;;;;;;;;-1.40;99.90;;;;;;5003044;28;19913;-62
2021/01/17 09:35:16;;;;;;;;;;;-1.20;99.90;;;;;;5004468;28;19944;-65
2021/01/17 09:37:42;;;;;;;;;;;-1.20;99.90;;;;;;5003514;28;20739;-64
2021/01/17 09:40:07;;;;;;;;;;;-1.30;99.90;;;;;;4999165;28;19917;-64
2021/01/17 09:42:33;;;;;;;;;;;-1.40;99.90;;;;;;4994905;28;19929;-64
2021/01/17 09:45:00;;;;;;;;;;;-1.30;99.90;;;;;;4998420;28;20415;-62
2021/01/17 09:47:26;;;;;;;;;;;-1.20;99.90;;;;;;4995112;28;19933;-62
2021/01/17 09:49:52;;;;;;;;;;;-1.20;99.90;;;;;;5001517;28;20349;-64
2021/01/17 09:52:19;;;;;;;;;;;-1.40;99.90;;;;;;4999528;28;19925;-64
2021/01/17 09:54:45;;;;;;;;;;;-1.20;99.90;;;;;;5004338;28;19971;-64
2021/01/17 09:57:12;;;;;;;;;;;-0.90;99.90;;;;;;4999461;28;19923;-62
2021/01/17 09:59:38;;;;;;;;;;;-0.90;99.90;;;;;;4999425;28;20000;-64
2021/01/17 10:02:04;;;;;;;;;;;-1.00;99.90;;;;;;5005234;28;19920;-65
2021/01/17 10:04:30;;;;;;;;;;;-1.00;99.90;;;;;;5000750;28;19917;-61
2021/01/17 10:06:56;;;;;;;;;;;-1.10;99.90;;;;;;5004458;28;19972;-62
2021/01/17 10:09:23;;;;;;;;;;;-1.20;99.90;;;;;;4999306;28;19948;-58
2021/01/17 10:11:52;;;;;;;;;;;-1.10;99.90;;;;;;4999187;28;19975;-63
2021/01/17 10:14:20;;;;;;;;;;;-1.00;99.90;;;;;;5000823;28;19961;-62
2021/01/17 10:16:49;;;;;;;;;;;-0.90;99.90;;;;;;5000926;28;19996;-66
2021/01/17 10:19:15;;;;;;;;;;;-1.00;99.90;;;;;;5001088;28;20442;-63
2021/01/17 10:21:43;;;;;;;;;;;-0.90;99.90;;;;;;5003091;28;19917;-65
2021/01/17 10:24:11;;;;;;;;;;;;;;;;;;4999712;28;19928;-62
2021/01/17 10:26:37;;;;;;;;;;;-0.90;99.90;;;;;;5005089;28;20021;-64
2021/01/17 10:29:06;;;;;;;;;;;-1.10;99.90;;;;;;5002368;28;20003;-68
2021/01/17 10:31:34;;;;;;;;;;;-1.10;99.90;;;;;;5001311;28;19928;-61
2021/01/17 10:33:59;;;;;;;;;;;-0.90;99.90;;;;;;5004102;28;19925;-62
2021/01/17 10:36:25;;;;;;;;;;;-0.70;99.90;;;;;;4999342;28;19918;-60
2021/01/17 10:38:50;;;;;;;;;;;-1.30;99.90;;;;;;5003797;28;20000;-59
2021/01/17 10:41:24;;;;;;;;;;;-0.90;99.90;;;;;;5015621;28;19921;-64
2021/01/17 10:43:53;;;;;;;;;;;-0.90;99.90;;;;;;5002557;28;19917;-62
2021/01/17 10:46:26;;;;;;;;;;;-1.10;99.90;;;;;;4997783;28;19922;-60
2021/01/17 10:48:54;;;;;;;;;;;-1.00;99.90;;;;;;4995254;28;19921;-60
2021/01/17 10:51:24;;;;;;;;;;;-0.90;99.90;;;;;;4997286;28;19952;-65
2021/01/17 10:53:51;;;;;;;;;;;-0.90;99.90;;;;;;4996260;28;19925;-61
2021/01/17 10:56:16;;;;;;;;;;;-0.70;99.90;;;;;;4997255;28;20061;-62
2021/01/17 10:58:43;;;;;;;;;;;;;;;;;;4998394;28;20451;-63
2021/01/17 11:01:10;;;;;;;;;;;;;;;;;;4991733;28;19928;-60
2021/01/17 11:03:37;;;;;;;;;;;-0.60;99.90;;;;;;5000709;28;20280;-63
2021/01/17 11:06:08;;;;;;;;;;;-0.50;99.90;;;;;;5000670;28;19920;-64
2021/01/17 11:08:47;;;;;;;;;;;-0.70;99.90;;;;;;5000696;28;19917;-60
2021/01/17 11:11:14;;;;;;;;;;;-0.60;99.90;;;;;;4999854;28;19918;-62
2021/01/17 11:13:40;;;;;;;;;;;-0.40;99.90;;;;;;4998371;28;20373;-64
2021/01/17 11:16:06;;;;;;;;;;;-0.40;99.90;;;;;;5001735;28;19972;-61
2021/01/17 11:18:31;;;;;;;;;;;-0.20;99.90;;;;;;4995747;28;20047;-65
2021/01/17 11:20:57;;;;;;;;;;;;;;;;;;4997691;28;19970;-64
2021/01/17 11:23:23;;;;;;;;;;;;;;;;;;5002792;28;19922;-62
2021/01/17 11:25:49;;;;;;;;;;;;;;;;;;5000554;28;20266;-66
2021/01/17 11:28:15;;;;;;;;;;;;;;;;;;4999785;28;20842;-63
2021/01/17 11:30:41;;;;;;;;;;;;;;;;;;5003396;28;19917;-63
2021/01/17 11:33:07;;;;;;;;;;;;;;;;;;4999457;28;20526;-66
2021/01/17 11:35:32;;;;;;;;;;;0.00;99.90;;;;;;5002399;28;19928;-64
2021/01/17 11:37:58;;;;;;;;;;;0.40;99.90;;;;;;5000665;28;19917;-67
2021/01/17 11:40:23;;;;;;;;;;;0.20;99.90;;;;;;4999093;28;20412;-64
2021/01/17 11:42:49;;;;;;;;;;;0.10;99.90;;;;;;5002387;28;19930;-63
2021/01/17 11:45:21;;;;;;;;;;;0.20;99.90;;;;;;5000234;28;19913;-62
2021/01/17 11:47:56;;;;;;;;;;;0.00;99.90;;;;;;4998459;28;19968;-62
2021/01/17 11:50:21;;;;;;;;;;;0.30;99.90;;;;;;4999035;28;19964;-67
2021/01/17 11:53:00;;;;;;;;;;;0.00;99.90;;;;;;5000082;28;19956;-63
2021/01/17 11:55:26;;;;;;;;;;;-0.30;99.90;;;;;;5002557;28;20020;-64
2021/01/17 11:58:05;;;;;;;;;;;0.00;99.90;;;;;;5000014;28;19923;-63
2021/01/17 12:00:31;;;;;;;;;;;0.20;99.90;;;;;;5001505;28;19922;-65
2021/01/17 12:02:57;;;;;;;;;;;0.30;99.90;;;;;;5002057;28;19939;-62
2021/01/17 12:05:22;;;;;;;;;;;0.20;99.90;;;;;;4999166;28;19925;-63
2021/01/17 12:07:58;;;;;;;;;;;0.00;99.90;;;;;;5005059;28;20369;-60
2021/01/17 12:10:24;;;;;;;;;;;0.00;99.90;;;;;;4999063;28;19921;-62
2021/01/17 12:12:49;;;;;;;;;;;0.40;99.90;;;;;;4997681;28;19923;-66
2021/01/17 12:15:15;;;;;;;;;;;0.20;99.90;;;;;;4999259;28;20269;-61
2021/01/17 12:17:40;;;;;;;;;;;0.10;99.90;;;;;;4996388;28;19968;-64
2021/01/17 12:20:06;;;;;;;;;;;0.00;99.90;;;;;;5000349;28;19914;-64
2021/01/17 12:22:32;;;;;;;;;;;-0.10;99.90;;;;;;5000345;28;19972;-65
2021/01/17 12:24:57;;;;;;;;;;;0.30;99.90;;;;;;4999048;28;19914;-63
2021/01/17 12:27:23;;;;;;;;;;;0.10;99.90;;;;;;5002533;28;19925;-61
2021/01/17 12:29:48;;;;;;;;;;;0.20;99.90;;;;;;4998928;28;20692;-63
2021/01/17 12:32:15;;;;;;;;;;;0.40;99.90;;;;;;5001993;28;20308;-60
2021/01/17 12:34:40;;;;;;;;;;;0.60;99.90;;;;;;4996106;28;20372;-63
2021/01/17 12:37:06;;;;;;;;;;;0.50;99.90;;;;;;5000090;28;19914;-63
2021/01/17 12:39:31;;;;;;;;;;;0.60;99.90;;;;;;5014629;28;19925;-61
2021/01/17 12:41:58;;;;;;;;;;;0.50;99.90;;;;;;4998795;28;19914;-66
2021/01/17 12:44:24;;;;;;;;;;;0.60;99.90;;;;;;5000898;28;19922;-64
2021/01/17 12:46:50;;;;;;;;;;;0.70;99.90;;;;;;5000861;28;19924;-64
2021/01/17 12:49:16;;;;;;;;;;;0.60;99.90;;;;;;5001092;28;20001;-62
2021/01/17 12:51:42;;;;;;;;;;;0.60;99.90;;;;;;4999578;28;19914;-65
2021/01/17 12:54:07;;;;;;;;;;;0.60;99.90;;;;;;4999737;28;19929;-66
2021/01/17 12:56:33;;;;;;;;;;;0.40;99.90;;;;;;4999796;28;19918;-64
2021/01/17 12:58:59;;;;;;;;;;;0.50;99.90;;;;;;5000177;28;19921;-63
2021/01/17 13:01:24;;;;;;;;;;;0.60;99.90;;;;;;4998547;28;19955;-59
2021/01/17 13:03:50;;;;;;;;;;;0.70;99.90;;;;;;5001393;28;20416;-64
2021/01/17 13:06:16;;;;;;;;;;;0.20;99.90;;;;;;4998761;28;19924;-61
2021/01/17 13:08:42;;;;;;;;;;;0.70;99.90;;;;;;5000321;28;19922;-61
2021/01/17 13:11:09;;;;;;;;;;;0.70;99.90;;;;;;5000522;28;19920;-62
2021/01/17 13:13:35;;;;;;;;;;;0.40;99.90;;;;;;4997815;28;20380;-61
2021/01/17 13:16:02;;;;;;;;;;;0.50;99.90;;;;;;4997879;28;19918;-61
2021/01/17 13:18:28;;;;;;;;;;;0.50;99.90;;;;;;4998709;28;19917;-60
2021/01/17 13:20:54;;;;;;;;;;;0.60;99.90;;;;;;4999692;28;19918;-65
2021/01/17 13:23:19;;;;;;;;;;;0.60;99.90;;;;;;5002257;28;19921;-64
2021/01/17 13:25:45;;;;;;;;;;;0.50;99.90;;;;;;5001164;28;19921;-61
2021/01/17 13:28:11;;;;;;;;;;;0.90;99.90;;;;;;5004681;28;19925;-60
2021/01/17 13:30:37;;;;;;;;;;;0.60;99.90;;;;;;5001539;28;19918;-63
2021/01/17 13:33:12;;;;;;;;;;;0.60;99.90;;;;;;5003497;28;19925;-61
2021/01/17 13:35:44;;;;;;;;;;;0.40;99.90;;;;;;5005575;28;19926;-62
2021/01/17 13:38:11;;;;;;;;;;;0.40;99.90;;;;;;5001010;28;19956;-59
2021/01/17 13:40:36;;;;;;;;;;;0.50;99.90;;;;;;5003891;28;19917;-65
2021/01/17 13:43:02;;;;;;;;;;;0.70;99.90;;;;;;5003353;28;20353;-65
2021/01/17 13:45:28;;;;;;;;;;;0.40;99.90;;;;;;5001170;28;20032;-62
2021/01/17 13:47:53;;;;;;;;;;;0.40;99.90;;;;;;5002173;28;20772;-58
2021/01/17 13:50:19;;;;;;;;;;;0.60;99.90;;;;;;4999624;28;19921;-66
2021/01/17 13:52:44;;;;;;;;;;;0.60;99.90;;;;;;5002922;28;19967;-65
2021/01/17 13:55:12;;;;;;;;;;;0.60;99.90;;;;;;5002305;28;19926;-63
2021/01/17 13:57:37;;;;;;;;;;;0.30;99.90;;;;;;4985555;28;20520;-64
2021/01/17 14:00:06;;;;;;;;;;;0.80;99.90;;;;;;5003753;28;19940;-63
2021/01/17 14:02:32;;;;;;;;;;;0.30;99.90;;;;;;4995882;28;20009;-61
2021/01/17 14:04:58;;;;;;;;;;;0.30;99.90;;;;;;5001776;28;19917;-63
2021/01/17 14:07:23;;;;;;;;;;;0.60;99.90;;;;;;5003323;28;19928;-64
2021/01/17 14:09:49;;;;;;;;;;;0.60;99.90;;;;;;5000320;28;19922;-66
2021/01/17 14:12:14;;;;;;;;;;;0.60;99.90;;;;;;5002716;28;19928;-64
2021/01/17 14:14:41;;;;;;;;;;;0.40;99.90;;;;;;4999361;28;20004;-65
2021/01/17 14:17:06;;;;;;;;;;;0.50;99.90;;;;;;5003734;28;19918;-62
2021/01/17 14:19:32;;;;;;;;;;;0.30;99.90;;;;;;5001825;28;19924;-62
2021/01/17 14:21:58;;;;;;;;;;;0.50;99.90;;;;;;5002534;28;19924;-63
2021/01/17 14:24:24;;;;;;;;;;;0.70;99.90;;;;;;5004257;28;20423;-65
2021/01/17 14:26:50;;;;;;;;;;;;;;;;;;4999772;28;20289;-60